createdAt,value
2018-11-23T00:05:04.846Z,41.33
2018-11-23T00:15:21.401Z,38.30
2018-11-23T00:25:36.283Z,38.50
2018-11-23T00:35:51.853Z,41.40
2018-11-23T00:46:07.374Z,48.07
2018-11-23T00:56:22.344Z,42.13
2018-11-23T01:06:36.965Z,43.07
2018-11-23T01:16:52.778Z,43.13
2018-11-23T01:27:08.520Z,35.87
2018-11-23T01:37:24.237Z,38.17
2018-11-23T01:47:46.030Z,37.03
2018-11-23T01:58:01.627Z,36.63
2018-11-23T02:08:16.470Z,33.10
2018-11-23T02:18:31.210Z,34.67
2018-11-23T02:28:46.562Z,32.10
2018-11-23T02:39:01.330Z,35.40
2018-11-23T02:49:17.002Z,34.70
2018-11-23T02:59:32.544Z,35.87
2018-11-23T03:09:47.360Z,34.47
2018-11-23T03:20:02.733Z,36.20
2018-11-23T03:30:22.390Z,35.40
2018-11-23T03:40:37.929Z,37.03
2018-11-23T03:50:53.404Z,37.83
2018-11-23T04:01:08.947Z,37.38
2018-11-23T04:11:23.776Z,38.80
2018-11-23T04:21:39.400Z,40.67
2018-11-23T04:31:54.673Z,37.67
2018-11-23T04:42:10.469Z,41.47
2018-11-23T04:52:26.211Z,37.07
2018-11-23T05:02:41.536Z,40.93
2018-11-23T05:12:57.461Z,38.57
2018-11-23T05:23:12.227Z,40.10
2018-11-23T05:33:27.637Z,43.03
2018-11-23T05:43:43.315Z,41.97
2018-11-23T05:53:58.289Z,39.40
2018-11-23T06:04:13.641Z,43.90
2018-11-23T06:14:28.472Z,42.47
2018-11-23T06:24:43.168Z,40.67
2018-11-23T06:34:58.986Z,45.03
2018-11-23T06:45:14.276Z,42.17
2018-11-23T06:55:30.264Z,43.17
2018-11-23T07:05:45.625Z,43.03
2018-11-23T07:16:01.101Z,42.93
2018-11-23T07:26:16.068Z,41.90
2018-11-23T07:36:31.434Z,40.63
2018-11-23T07:46:46.627Z,43.15
2018-11-23T07:57:01.873Z,44.88
2018-11-23T08:07:17.206Z,43.07
2018-11-23T08:17:32.891Z,41.90
2018-11-23T08:27:49.346Z,44.83
2018-11-23T08:38:05.668Z,43.57
2018-11-23T08:48:23.203Z,47.53
2018-11-23T08:58:39.122Z,43.17
2018-11-23T09:08:54.614Z,43.63
2018-11-23T09:19:11.621Z,41.28
2018-11-23T09:29:26.636Z,41.37
2018-11-23T09:39:43.949Z,44.90
2018-11-23T09:50:05.448Z,45.33
2018-11-23T10:00:23.501Z,41.60
2018-11-23T10:10:39.518Z,42.20
2018-11-23T10:20:55.558Z,42.00
2018-11-23T10:31:10.708Z,39.77
2018-11-23T10:41:27.030Z,40.40
2018-11-23T10:51:43.112Z,38.60
2018-11-23T11:02:03.327Z,40.63
2018-11-23T11:12:18.156Z,41.60
2018-11-23T11:22:33.734Z,39.40
2018-11-23T11:32:49.418Z,35.33
2018-11-23T11:43:04.236Z,33.13
2018-11-23T11:53:19.905Z,38.92
2018-11-23T12:03:35.181Z,36.13
2018-11-23T12:13:50.796Z,35.40
2018-11-23T12:24:07.850Z,36.47
2018-11-23T12:34:23.108Z,34.10
2018-11-23T12:44:38.616Z,33.80
2018-11-23T12:54:54.096Z,29.00
2018-11-23T13:05:09.829Z,30.80
2018-11-23T13:15:25.588Z,33.17
2018-11-23T13:25:41.611Z,32.57
2018-11-23T13:35:56.684Z,32.67
2018-11-23T13:46:12.926Z,33.27
2018-11-23T13:56:27.762Z,38.17
2018-11-23T14:06:44.353Z,36.83
2018-11-23T14:17:01.305Z,39.17
2018-11-23T14:27:16.159Z,34.93
2018-11-23T14:37:31.308Z,38.27
2018-11-23T14:47:47.142Z,35.03
2018-11-23T14:58:02.247Z,37.97
2018-11-23T15:08:19.458Z,41.03
2018-11-23T15:18:34.276Z,34.83
2018-11-23T15:28:49.290Z,39.33
2018-11-23T15:39:07.968Z,40.47
2018-11-23T15:49:22.842Z,39.20
2018-11-23T15:59:38.388Z,44.23
2018-11-23T16:09:53.487Z,44.17
2018-11-23T16:20:11.083Z,37.83
2018-11-23T16:30:31.340Z,41.27
2018-11-23T16:40:47.996Z,46.47
2018-11-23T16:51:03.128Z,47.77
2018-11-23T17:01:19.092Z,44.77
2018-11-23T17:11:34.280Z,44.50
2018-11-23T17:21:49.835Z,46.35
2018-11-23T17:32:05.474Z,46.33
2018-11-23T17:42:21.147Z,44.10
2018-11-23T17:52:36.851Z,48.27
2018-11-23T18:02:53.202Z,50.70
2018-11-23T18:13:09.056Z,45.97
2018-11-23T18:23:24.121Z,48.23
2018-11-23T18:33:39.604Z,47.03
2018-11-23T18:43:55.216Z,46.90
2018-11-23T18:54:10.866Z,46.35
2018-11-23T19:04:26.479Z,46.73
2018-11-23T19:14:42.227Z,46.73
2018-11-23T19:24:57.350Z,54.80
2018-11-23T19:35:12.777Z,45.43
2018-11-23T19:45:28.413Z,45.97
2018-11-23T19:55:44.851Z,47.83
2018-11-23T20:06:00.051Z,46.23
2018-11-23T20:16:15.410Z,46.50
2018-11-23T20:26:30.744Z,46.30
2018-11-23T20:36:46.490Z,45.43
2018-11-23T20:47:02.306Z,43.80
2018-11-23T20:57:17.885Z,42.90
2018-11-23T21:07:33.882Z,38.47
2018-11-23T21:17:49.241Z,39.13
2018-11-23T21:28:04.306Z,34.37
2018-11-23T21:38:19.871Z,28.52
2018-11-23T21:48:35.467Z,29.70
2018-11-23T21:58:50.837Z,30.47
2018-11-23T22:09:07.260Z,31.10
2018-11-23T22:19:21.934Z,29.93
2018-11-23T22:29:37.521Z,27.32
2018-11-23T22:39:52.708Z,28.37
2018-11-23T22:50:10.059Z,29.90
2018-11-23T23:00:30.448Z,31.70
2018-11-23T23:10:46.394Z,32.13
2018-11-23T23:21:01.890Z,29.47
2018-11-23T23:31:22.477Z,27.10
2018-11-23T23:41:37.711Z,29.12
2018-11-23T23:51:53.379Z,33.97
